Delaware, Arkansas
Current Conditions -  °F | °C
As of 8:53 AM on Saturday 20 Dec 2014 (Local Time) from KRUE Reporting Station
Overcast Overcast  
Wind Chill: 42°   Ceiling: 2300
Heat Index: 42°   Visibility: 8mi
Dew Point: 36°   Wind: 3mph
Humidity: 79%   Direction: 40°NE
Pressure: 30.26"   Gusts: NA
Location:  35.28°N, 93.3°W
Report Text: KRUE 201453Z AUTO 04003KT 8SM OVC023 06/02 A3026 RMK AO2 SLP246 T00560022 51008
Loading
Personal Weather Stations






























Interactive Weather Map New forecast layout! Learn more

10-Day Weather Forecast

Advertisements
Track Severe Weather on mobile